createdAt,value
2023-03-22T00:00:14.461Z,85.07
2023-03-22T00:03:03.249Z,83.70
2023-03-22T00:05:31.652Z,82.97
2023-03-22T00:08:00.550Z,84.10
2023-03-22T00:10:29.840Z,82.90
2023-03-22T00:12:59.974Z,85.40
2023-03-22T00:15:29.660Z,85.20
2023-03-22T00:17:59.139Z,83.45
2023-03-22T00:20:30.445Z,80.28
2023-03-22T00:22:59.330Z,88.78
2023-03-22T00:25:27.922Z,84.72
2023-03-22T00:27:56.455Z,84.95
2023-03-22T00:30:26.320Z,85.07
2023-03-22T00:32:54.937Z,80.50
2023-03-22T00:35:23.332Z,83.35
2023-03-22T00:37:52.017Z,85.47
2023-03-22T00:40:20.643Z,83.22
2023-03-22T00:42:49.164Z,80.55
2023-03-22T00:45:17.561Z,77.03
2023-03-22T00:47:47.669Z,81.32
2023-03-22T00:50:16.065Z,83.10
2023-03-22T00:52:44.806Z,83.20
2023-03-22T00:55:13.179Z,83.60
2023-03-22T00:57:41.661Z,80.25
2023-03-22T01:00:13.759Z,79.95
2023-03-22T01:02:42.655Z,77.68
2023-03-22T01:05:15.773Z,79.80
2023-03-22T01:07:44.998Z,80.57
2023-03-22T01:10:13.896Z,65.35
2023-03-22T01:12:42.536Z,65.30
2023-03-22T01:15:11.696Z,54.85
2023-03-22T01:17:40.552Z,65.35
2023-03-22T01:20:10.090Z,63.63
2023-03-22T01:22:40.188Z,54.97
2023-03-22T01:25:09.539Z,66.88
2023-03-22T01:27:38.306Z,65.00
2023-03-22T01:30:07.599Z,82.88
2023-03-22T01:32:37.787Z,95.47
2023-03-22T01:35:06.917Z,99.22
2023-03-22T01:37:35.775Z,96.32
2023-03-22T01:40:06.623Z,100.82
2023-03-22T01:42:35.232Z,96.68
2023-03-22T01:45:34.930Z,99.38
2023-03-22T01:48:06.907Z,91.80
2023-03-22T01:50:37.685Z,87.45
2023-03-22T01:53:07.755Z,81.53
2023-03-22T01:55:38.502Z,81.50
2023-03-22T01:58:07.115Z,67.70
2023-03-22T02:00:35.525Z,64.05
2023-03-22T02:03:04.152Z,69.90
2023-03-22T02:05:33.040Z,97.53
2023-03-22T02:08:02.214Z,103.47
2023-03-22T02:10:30.700Z,94.63
2023-03-22T02:13:13.208Z,107.40
2023-03-22T02:15:47.174Z,95.90
2023-03-22T02:18:34.235Z,97.65
2023-03-22T02:21:29.310Z,100.47
2023-03-22T02:24:14.260Z,107.50
2023-03-22T02:27:06.512Z,110.63
2023-03-22T02:29:41.584Z,110.35
2023-03-22T02:32:42.429Z,111.32
2023-03-22T02:35:40.826Z,108.65
2023-03-22T02:38:24.102Z,106.03
2023-03-22T02:40:56.260Z,107.55
2023-03-22T02:43:34.388Z,110.97
2023-03-22T02:46:06.650Z,114.20
2023-03-22T02:48:39.682Z,113.88
2023-03-22T02:51:11.692Z,107.05
2023-03-22T02:53:43.851Z,108.20
2023-03-22T02:56:16.212Z,109.28
2023-03-22T02:58:46.580Z,102.22
2023-03-22T03:01:21.113Z,100.32
2023-03-22T03:03:51.243Z,93.72
2023-03-22T03:06:21.712Z,97.75
2023-03-22T03:08:51.962Z,96.47
2023-03-22T03:11:22.490Z,91.00
2023-03-22T03:13:51.311Z,89.90
2023-03-22T03:16:22.428Z,86.22
2023-03-22T03:18:54.686Z,83.53
2023-03-22T03:21:32.751Z,83.95
2023-03-22T03:24:13.985Z,84.80
2023-03-22T03:29:16.379Z,85.72
2023-03-22T03:31:48.447Z,86.05
2023-03-22T03:34:21.523Z,86.90
2023-03-22T03:36:55.285Z,85.10
2023-03-22T03:39:25.852Z,88.45
2023-03-22T03:41:56.885Z,85.78
2023-03-22T03:44:25.651Z,86.15
2023-03-22T03:46:54.343Z,84.75
2023-03-22T03:49:23.588Z,90.30
2023-03-22T03:51:53.700Z,85.53
2023-03-22T03:54:22.624Z,80.22
2023-03-22T03:56:51.183Z,77.75
2023-03-22T03:59:21.925Z,80.05
2023-03-22T04:01:51.965Z,79.20
2023-03-22T04:04:26.687Z,76.38
2023-03-22T04:06:57.073Z,74.55
2023-03-22T04:09:27.108Z,77.75
2023-03-22T04:11:56.143Z,73.03
2023-03-22T04:14:26.773Z,73.88
2023-03-22T04:16:56.001Z,68.95
2023-03-22T04:19:24.498Z,70.80
2023-03-22T04:21:53.912Z,70.85
2023-03-22T04:24:22.859Z,72.45
2023-03-22T04:26:52.552Z,73.63
2023-03-22T04:29:22.157Z,68.68
2023-03-22T04:31:53.275Z,65.10
2023-03-22T04:34:21.650Z,64.80
2023-03-22T04:36:50.868Z,62.72
2023-03-22T04:39:19.215Z,63.15
2023-03-22T04:41:47.803Z,59.95
2023-03-22T04:44:16.237Z,60.88
2023-03-22T04:46:44.982Z,56.83
2023-03-22T04:49:14.631Z,57.30
2023-03-22T04:51:43.346Z,58.67
2023-03-22T04:54:11.700Z,64.35
2023-03-22T04:56:40.423Z,61.13
2023-03-22T04:59:08.651Z,64.07
2023-03-22T05:01:37.706Z,65.75
2023-03-22T05:04:06.228Z,62.63
2023-03-22T05:06:36.294Z,62.80
2023-03-22T05:09:05.166Z,62.50
2023-03-22T05:11:33.900Z,62.53
2023-03-22T05:14:02.113Z,62.75
2023-03-22T05:16:30.767Z,64.68
2023-03-22T05:18:59.303Z,65.15
2023-03-22T05:21:29.252Z,59.00
2023-03-22T05:24:00.515Z,58.90
2023-03-22T05:26:29.209Z,60.15
2023-03-22T05:28:58.447Z,61.13
2023-03-22T05:31:28.811Z,60.35
2023-03-22T05:33:57.652Z,64.40
2023-03-22T05:36:29.725Z,63.17
2023-03-22T05:38:59.543Z,64.28
2023-03-22T05:41:28.425Z,67.13
2023-03-22T05:43:56.940Z,68.28
2023-03-22T05:46:25.814Z,65.55
2023-03-22T05:48:54.154Z,63.90
2023-03-22T05:51:25.974Z,60.92
2023-03-22T05:53:54.680Z,59.45
2023-03-22T05:56:25.885Z,59.03
2023-03-22T05:58:54.235Z,51.50
2023-03-22T06:01:23.247Z,53.33
2023-03-22T06:03:51.531Z,63.15
2023-03-22T06:06:20.208Z,53.58
2023-03-22T06:08:48.550Z,59.55
2023-03-22T06:11:18.621Z,59.67
2023-03-22T06:13:48.334Z,57.65
2023-03-22T06:16:16.903Z,56.08
2023-03-22T06:18:45.428Z,61.20
2023-03-22T06:21:14.136Z,58.00
2023-03-22T06:23:43.785Z,59.72
2023-03-22T06:26:12.609Z,58.65
2023-03-22T06:28:40.823Z,57.70
2023-03-22T06:31:11.454Z,60.58
2023-03-22T06:33:39.850Z,58.30
2023-03-22T06:36:08.962Z,59.72
2023-03-22T06:38:37.271Z,64.90
2023-03-22T06:41:06.563Z,60.53
2023-03-22T06:43:35.410Z,63.83
2023-03-22T06:46:04.272Z,58.75
2023-03-22T06:48:34.057Z,61.15
2023-03-22T06:51:02.670Z,56.28
2023-03-22T06:53:31.021Z,52.63
2023-03-22T06:56:01.917Z,58.10
2023-03-22T06:58:30.325Z,57.37
2023-03-22T07:00:59.062Z,55.10
2023-03-22T07:03:27.625Z,56.88
2023-03-22T07:06:03.546Z,59.33
2023-03-22T07:08:31.949Z,54.55
2023-03-22T07:11:00.549Z,55.55
2023-03-22T07:13:29.221Z,54.03
2023-03-22T07:15:58.425Z,55.92
2023-03-22T07:18:27.264Z,47.97
2023-03-22T07:20:55.973Z,50.08
2023-03-22T07:23:26.090Z,57.78
2023-03-22T07:25:56.136Z,51.70
2023-03-22T07:28:24.999Z,47.17
2023-03-22T07:31:01.373Z,57.88
2023-03-22T07:33:29.660Z,56.35
2023-03-22T07:35:58.259Z,55.78
2023-03-22T07:38:28.051Z,51.00
2023-03-22T07:40:56.778Z,54.75
2023-03-22T07:43:27.451Z,48.90
2023-03-22T07:48:25.175Z,44.83
2023-03-22T07:50:57.435Z,48.60
2023-03-22T07:53:28.032Z,47.83
2023-03-22T07:55:56.602Z,42.65
2023-03-22T07:58:24.969Z,46.47
2023-03-22T08:00:53.797Z,47.55
2023-03-22T08:03:23.377Z,52.03
2023-03-22T08:05:52.157Z,49.40
2023-03-22T08:08:20.788Z,47.60
2023-03-22T08:10:53.645Z,47.53
2023-03-22T08:13:21.859Z,65.28
2023-03-22T08:15:50.628Z,37.95
2023-03-22T08:18:19.058Z,66.90
2023-03-22T08:20:47.917Z,43.78
2023-03-22T08:23:16.957Z,35.85
2023-03-22T08:25:45.842Z,33.75
2023-03-22T08:28:16.020Z,36.90
2023-03-22T08:30:45.222Z,34.83
2023-03-22T08:33:13.627Z,35.33
2023-03-22T08:35:42.852Z,37.33
2023-03-22T08:38:11.242Z,36.47
2023-03-22T08:40:40.055Z,39.97
2023-03-22T08:43:08.726Z,38.17
2023-03-22T08:45:39.200Z,31.20
2023-03-22T08:48:08.157Z,31.52
2023-03-22T08:50:37.032Z,31.63
2023-03-22T08:53:05.772Z,35.47
2023-03-22T08:55:35.629Z,22.05
2023-03-22T08:58:04.845Z,21.95
2023-03-22T09:00:45.991Z,19.88
2023-03-22T09:03:18.063Z,20.80
2023-03-22T09:05:46.652Z,21.43
2023-03-22T09:08:19.267Z,18.75
2023-03-22T09:10:51.857Z,20.73
2023-03-22T09:13:21.106Z,23.67
2023-03-22T09:15:49.996Z,25.83
2023-03-22T09:18:19.854Z,22.73
2023-03-22T09:20:48.729Z,21.63
2023-03-22T09:23:17.314Z,25.13
2023-03-22T09:25:46.419Z,23.02
2023-03-22T09:28:15.357Z,23.88
2023-03-22T09:30:44.910Z,28.45
2023-03-22T09:33:14.694Z,28.48
2023-03-22T09:35:45.153Z,28.48
2023-03-22T09:38:13.908Z,30.50
2023-03-22T09:40:48.047Z,26.23
2023-03-22T09:43:16.809Z,31.23
2023-03-22T09:45:48.572Z,30.58
2023-03-22T09:48:20.162Z,30.55
2023-03-22T09:50:53.387Z,29.45
2023-03-22T09:53:23.017Z,28.95
2023-03-22T09:55:55.806Z,29.52
2023-03-22T09:58:27.135Z,30.92
2023-03-22T10:00:59.549Z,31.65
2023-03-22T10:03:45.451Z,28.05
2023-03-22T10:06:19.737Z,28.88
2023-03-22T10:08:53.516Z,28.83
2023-03-22T10:11:27.644Z,31.58
2023-03-22T10:14:01.803Z,29.52
2023-03-22T10:16:33.518Z,28.08
2023-03-22T10:19:06.700Z,30.85
2023-03-22T10:21:37.328Z,29.38
2023-03-22T10:24:09.607Z,28.05
2023-03-22T10:26:40.145Z,27.70
2023-03-22T10:29:14.029Z,24.67
2023-03-22T10:31:44.950Z,26.83
2023-03-22T10:34:17.798Z,22.05
2023-03-22T10:36:48.563Z,23.08
2023-03-22T10:39:28.311Z,20.33
2023-03-22T10:41:58.289Z,19.35
2023-03-22T10:44:28.093Z,21.00
2023-03-22T10:46:58.390Z,22.35
2023-03-22T10:49:29.863Z,22.42
2023-03-22T10:52:04.321Z,19.70
2023-03-22T10:54:32.777Z,20.33
2023-03-22T10:57:01.580Z,18.50
2023-03-22T10:59:49.727Z,22.17
2023-03-22T11:02:20.527Z,20.75
2023-03-22T11:04:50.579Z,18.45
2023-03-22T11:07:32.133Z,19.48
2023-03-22T11:12:29.693Z,17.42
2023-03-22T11:14:58.126Z,18.55
2023-03-22T11:17:27.064Z,15.52
2023-03-22T11:19:57.411Z,19.05
2023-03-22T11:22:32.167Z,18.08
2023-03-22T11:25:01.332Z,15.65
2023-03-22T11:27:33.059Z,13.98
2023-03-22T11:30:10.484Z,12.30
2023-03-22T11:32:40.833Z,11.90
2023-03-22T11:35:15.800Z,12.33
2023-03-22T11:37:48.235Z,11.90
2023-03-22T11:40:18.165Z,11.73
2023-03-22T11:42:47.307Z,7.95
2023-03-22T11:45:17.030Z,7.32
2023-03-22T11:47:46.000Z,8.10
2023-03-22T11:50:28.463Z,7.13
2023-03-22T11:52:59.100Z,6.97
2023-03-22T11:55:27.673Z,10.02
2023-03-22T11:57:57.107Z,5.95
2023-03-22T12:00:27.406Z,8.02
2023-03-22T12:02:58.719Z,9.60
2023-03-22T12:05:28.633Z,7.57
2023-03-22T12:08:01.944Z,7.87
2023-03-22T12:10:32.940Z,5.32
2023-03-22T12:15:31.590Z,6.15
2023-03-22T12:18:06.602Z,7.75
2023-03-22T12:20:42.426Z,7.22
2023-03-22T12:23:16.942Z,6.45
2023-03-22T12:25:48.942Z,7.78
2023-03-22T12:28:20.261Z,6.88
2023-03-22T12:30:50.015Z,9.25
2023-03-22T12:33:21.888Z,7.45
2023-03-22T12:35:53.127Z,6.72
2023-03-22T12:38:29.748Z,7.38
2023-03-22T12:40:59.523Z,7.68
2023-03-22T12:43:39.540Z,8.02
2023-03-22T12:46:08.645Z,7.38
2023-03-22T12:48:41.104Z,8.48
2023-03-22T12:51:12.201Z,6.82
2023-03-22T12:53:44.157Z,7.32
2023-03-22T12:56:14.596Z,6.00
2023-03-22T12:58:45.354Z,9.55
2023-03-22T13:01:22.415Z,6.90
2023-03-22T13:03:53.798Z,5.55
2023-03-22T13:09:20.627Z,7.45
2023-03-22T13:11:51.681Z,6.70
2023-03-22T13:14:56.616Z,8.55
2023-03-22T13:17:39.606Z,6.82
2023-03-22T13:20:28.428Z,7.20
2023-03-22T13:23:02.300Z,7.43
2023-03-22T13:25:36.313Z,7.30
2023-03-22T13:28:06.828Z,7.13
2023-03-22T13:30:38.049Z,5.80
2023-03-22T13:33:16.436Z,7.95
2023-03-22T13:35:48.765Z,5.32
2023-03-22T13:38:22.179Z,6.03
2023-03-22T13:40:55.920Z,6.95
2023-03-22T13:43:28.700Z,6.53
2023-03-22T13:46:12.747Z,6.70
2023-03-22T13:48:44.157Z,6.70
2023-03-22T13:51:15.708Z,4.90
2023-03-22T13:53:47.181Z,5.63
2023-03-22T13:56:30.741Z,4.88
2023-03-22T13:58:59.075Z,4.53
2023-03-22T14:01:31.228Z,3.42
2023-03-22T14:04:02.202Z,4.78
2023-03-22T14:09:06.242Z,3.67
2023-03-22T14:11:41.096Z,3.90
2023-03-22T14:14:12.574Z,4.97
2023-03-22T14:16:44.298Z,4.05
2023-03-22T14:19:18.810Z,5.38
